Time,TemperatureF,DewpointF,PressureIn,WindDirection,WindDirectionDegrees,WindSpeedMPH,WindSpeedGustMPH,Humidity,HourlyPrecipIn,Conditions,Clouds,dailyrainin,SoftwareType,DateUTC
2013-06-07 00:00:00,67.5,66.3,29.00,NE,45,0.0,0.0,96,0.00,,OVC240,0.00,VWS V14.01,2013-06-07 05:00:00,
2013-06-07 00:01:00,67.5,66.3,29.00,NE,45,0.0,0.0,96,0.00,,OVC240,0.00,VWS V14.01,2013-06-07 05:01:00,
2013-06-07 00:02:00,67.5,66.3,29.00,NE,45,0.0,0.0,96,0.00,,OVC240,0.00,VWS V14.01,2013-06-07 05:02:00,
2013-06-07 00:03:00,67.5,66.3,29.00,NE,45,0.0,0.0,96,0.00,,OVC240,0.00,VWS V14.01,2013-06-07 05:03:00,
2013-06-07 00:05:00,67.3,66.1,29.00,NE,45,0.0,0.0,96,0.00,,OVC240,0.00,VWS V14.01,2013-06-07 05:05:00,
2013-06-07 00:06:00,67.3,66.1,29.00,NE,45,0.0,0.0,96,0.00,,OVC240,0.00,VWS V14.01,2013-06-07 05:06:00,
2013-06-07 00:07:00,67.3,66.1,29.00,NE,45,0.0,0.0,96,0.00,,OVC240,0.00,VWS V14.01,2013-06-07 05:07:00,
2013-06-07 00:08:00,67.3,66.1,29.00,NE,45,0.0,0.0,96,0.00,,OVC240,0.00,VWS V14.01,2013-06-07 05:08:00,
2013-06-07 00:09:00,67.3,66.1,29.00,NE,45,0.0,0.0,96,0.00,,OVC240,0.00,VWS V14.01,2013-06-07 05:09:00,
2013-06-07 00:10:00,67.3,66.4,29.00,NE,45,0.0,0.0,97,0.00,,OVC240,0.00,VWS V14.01,2013-06-07 05:10:00,
2013-06-07 00:11:00,67.3,66.4,29.00,NE,45,0.0,0.0,97,0.00,,OVC240,0.00,VWS V14.01,2013-06-07 05:11:00,
2013-06-07 00:12:00,67.3,66.4,29.00,NE,45,0.0,0.0,97,0.00,,OVC240,0.00,VWS V14.01,2013-06-07 05:12:00,
2013-06-07 00:13:00,67.3,66.4,29.00,NE,45,0.0,0.0,97,0.00,,OVC240,0.00,VWS V14.01,2013-06-07 05:13:00,
2013-06-07 00:14:00,67.3,66.4,29.00,NE,45,0.0,0.0,97,0.00,,OVC240,0.00,VWS V14.01,2013-06-07 05:14:00,
2013-06-07 00:15:00,67.3,66.4,29.00,NE,45,0.0,0.0,97,0.00,,OVC240,0.00,VWS V14.01,2013-06-07 05:15:00,
2013-06-07 00:16:00,67.3,66.4,29.00,NE,45,0.0,0.0,97,0.00,,OVC240,0.00,VWS V14.01,2013-06-07 05:16:00,
2013-06-07 00:17:00,67.3,66.4,29.00,NE,45,0.0,0.0,97,0.00,,OVC240,0.00,VWS V14.01,2013-06-07 05:17:00,
2013-06-07 00:18:00,67.3,66.4,29.00,NE,45,0.0,0.0,97,0.00,,OVC240,0.00,VWS V14.01,2013-06-07 05:18:00,
2013-06-07 00:19:00,67.3,66.4,29.00,NE,45,0.0,0.0,97,0.00,,OVC240,0.00,VWS V14.01,2013-06-07 05:19:00,
2013-06-07 00:20:00,67.3,66.4,29.00,NE,45,0.0,0.0,97,0.00,,OVC240,0.00,VWS V14.01,2013-06-07 05:20:00,
2013-06-07 00:21:00,67.3,66.4,29.00,NE,45,0.0,0.0,97,0.00,,OVC240,0.00,VWS V14.01,2013-06-07 05:21:00,
2013-06-07 00:22:00,67.3,66.4,29.00,NE,45,0.0,0.0,97,0.00,,OVC240,0.00,VWS V14.01,2013-06-07 05:22:00,
2013-06-07 00:23:00,67.3,66.4,29.00,NE,45,0.0,0.0,97,0.00,,OVC240,0.00,VWS V14.01,2013-06-07 05:23:00,
2013-06-07 00:24:00,67.3,66.4,29.00,NE,45,0.0,0.0,97,0.00,,OVC240,0.00,VWS V14.01,2013-06-07 05:24:00,
2013-06-07 00:25:00,67.3,66.4,29.00,NE,45,0.0,0.0,97,0.00,,OVC240,0.00,VWS V14.01,2013-06-07 05:25:00,
2013-06-07 00:26:00,67.3,66.4,29.00,NE,45,0.0,0.0,97,0.00,,OVC240,0.00,VWS V14.01,2013-06-07 05:26:00,
2013-06-07 00:27:00,67.3,66.4,29.00,NE,45,0.0,0.0,97,0.00,,OVC240,0.00,VWS V14.01,2013-06-07 05:27:00,
2013-06-07 00:28:00,67.3,66.4,29.00,NE,45,0.0,0.0,97,0.00,,OVC240,0.00,VWS V14.01,2013-06-07 05:28:00,
2013-06-07 00:29:00,67.3,66.4,29.00,NE,45,0.0,0.0,97,0.00,,OVC240,0.00,VWS V14.01,2013-06-07 05:29:00,
2013-06-07 00:30:00,67.3,66.4,29.00,NE,45,0.0,0.0,97,0.00,,OVC240,0.00,VWS V14.01,2013-06-07 05:30:00,
2013-06-07 00:31:00,67.3,66.4,29.00,NE,45,0.0,0.0,97,0.00,,OVC240,0.00,VWS V14.01,2013-06-07 05:31:00,
2013-06-07 00:32:00,67.1,66.2,29.00,NE,45,0.0,0.0,97,0.00,,OVC240,0.00,VWS V14.01,2013-06-07 05:32:00,
2013-06-07 00:33:00,67.1,66.2,29.00,NE,45,0.0,0.0,97,0.00,,OVC240,0.00,VWS V14.01,2013-06-07 05:33:00,
2013-06-07 00:34:00,67.1,66.2,29.00,NE,45,0.0,0.0,97,0.00,,OVC240,0.00,VWS V14.01,2013-06-07 05:34:00,
2013-06-07 00:35:00,67.1,66.2,29.00,NE,45,0.0,0.0,97,0.00,,OVC240,0.00,VWS V14.01,2013-06-07 05:35:00,
2013-06-07 00:36:00,67.1,66.2,29.03,NE,45,0.0,0.0,97,0.00,,OVC240,0.00,VWS V14.01,2013-06-07 05:36:00,
2013-06-07 00:37:00,67.1,66.2,29.03,NE,45,0.0,0.0,97,0.00,,OVC240,0.00,VWS V14.01,2013-06-07 05:37:00,
2013-06-07 00:38:00,67.1,66.2,29.03,NE,45,0.0,0.0,97,0.00,,OVC240,0.00,VWS V14.01,2013-06-07 05:38:00,
2013-06-07 00:39:00,66.9,66.0,29.03,NE,45,0.0,0.0,97,0.00,,OVC240,0.00,VWS V14.01,2013-06-07 05:39:00,
2013-06-07 00:40:00,66.9,66.0,29.03,NE,45,0.0,0.0,97,0.00,,OVC240,0.00,VWS V14.01,2013-06-07 05:40:00,
2013-06-07 00:41:00,66.9,66.0,29.03,NE,45,0.0,0.0,97,0.00,,OVC240,0.00,VWS V14.01,2013-06-07 05:41:00,
2013-06-07 00:42:00,66.9,66.0,29.03,NE,45,0.0,0.0,97,0.00,,OVC240,0.00,VWS V14.01,2013-06-07 05:42:00,
2013-06-07 00:43:00,66.9,66.0,29.03,NE,45,0.0,0.0,97,0.00,,OVC240,0.00,VWS V14.01,2013-06-07 05:43:00,
2013-06-07 00:44:00,66.9,66.0,29.03,NE,45,0.0,0.0,97,0.00,,OVC240,0.00,VWS V14.01,2013-06-07 05:44:00,
2013-06-07 00:45:00,66.9,66.0,29.03,NE,45,0.0,0.0,97,0.00,,OVC240,0.00,VWS V14.01,2013-06-07 05:45:00,
2013-06-07 00:46:00,66.9,66.0,29.03,NE,45,0.0,0.0,97,0.00,,OVC240,0.00,VWS V14.01,2013-06-07 05:46:00,
2013-06-07 00:47:00,66.9,66.0,29.03,NE,45,0.0,0.0,97,0.00,,OVC240,0.00,VWS V14.01,2013-06-07 05:47:00,
2013-06-07 00:48:00,66.9,66.0,29.03,NE,45,0.0,0.0,97,0.00,,OVC240,0.00,VWS V14.01,2013-06-07 05:48:00,
2013-06-07 00:49:00,67.1,66.2,29.03,NE,45,0.0,0.0,97,0.00,,OVC240,0.00,VWS V14.01,2013-06-07 05:49:00,
2013-06-07 00:50:00,67.1,66.2,29.03,NE,45,0.0,0.0,97,0.00,,OVC240,0.00,VWS V14.01,2013-06-07 05:50:00,
2013-06-07 00:51:00,67.1,66.2,29.03,NE,45,0.0,0.0,97,0.00,,OVC240,0.00,VWS V14.01,2013-06-07 05:51:00,
2013-06-07 00:52:00,67.1,66.2,29.03,NE,45,0.0,0.0,97,0.00,,OVC240,0.00,VWS V14.01,2013-06-07 05:52:00,
2013-06-07 00:53:00,67.1,66.2,29.03,NE,45,0.0,0.0,97,0.00,,OVC240,0.00,VWS V14.01,2013-06-07 05:53:00,
2013-06-07 00:54:00,67.3,66.4,29.03,NE,45,0.0,0.0,97,0.00,,OVC240,0.00,VWS V14.01,2013-06-07 05:54:00,
2013-06-07 00:55:00,67.1,66.2,29.03,NE,45,0.0,0.0,97,0.00,,OVC240,0.00,VWS V14.01,2013-06-07 05:55:00,
2013-06-07 00:56:00,67.1,66.2,29.03,NE,45,0.0,0.0,97,0.00,,OVC240,0.00,VWS V14.01,2013-06-07 05:56:00,
2013-06-07 00:57:00,67.1,66.2,29.03,NE,45,0.0,0.0,97,0.00,,OVC240,0.00,VWS V14.01,2013-06-07 05:57:00,
2013-06-07 00:58:00,67.1,66.2,29.03,NE,45,0.0,0.0,97,0.00,,OVC240,0.00,VWS V14.01,2013-06-07 05:58:00,
2013-06-07 00:59:00,67.1,66.2,29.03,NE,45,0.0,0.0,97,0.00,,OVC240,0.00,VWS V14.01,2013-06-07 05:59:00,
2013-06-07 07:10:00,70.0,69.1,29.03,NE,45,0.0,0.0,97,0.00,,OVC240,0.00,VWS V14.01,2013-06-07 12:10:00,
2013-06-07 07:20:00,70.7,69.8,29.03,NE,45,0.0,0.0,97,0.00,,OVC240,0.00,VWS V14.01,2013-06-07 12:20:00,
2013-06-07 07:30:00,70.7,69.5,29.03,NE,45,0.0,0.0,96,0.00,,OVC240,0.00,VWS V14.01,2013-06-07 12:30:00,
2013-06-07 07:31:00,70.7,69.5,29.03,NE,45,0.0,0.0,96,0.00,,OVC240,0.00,VWS V14.01,2013-06-07 12:31:00,
2013-06-07 07:40:00,71.1,69.6,29.03,East,90,0.0,0.9,95,0.00,,OVC240,0.00,VWS V14.01,2013-06-07 12:40:00,
2013-06-07 07:50:00,72.0,70.4,29.03,East,90,0.0,0.9,95,0.00,,OVC240,0.00,VWS V14.01,2013-06-07 12:50:00,
2013-06-07 08:00:00,72.1,70.3,29.03,SE,135,1.6,1.6,94,0.00,,OVC240,0.00,VWS V14.01,2013-06-07 13:00:00,
2013-06-07 08:10:00,72.3,70.5,29.00,SE,135,0.0,0.0,94,0.00,,OVC240,0.00,VWS V14.01,2013-06-07 13:10:00,
2013-06-07 08:20:00,74.8,72.4,29.00,SE,135,0.0,1.1,92,0.00,,OVC240,0.00,VWS V14.01,2013-06-07 13:20:00,
2013-06-07 08:30:00,75.2,72.1,29.03,SSE,158,0.0,0.0,90,0.00,,OVC240,0.00,VWS V14.01,2013-06-07 13:30:00,
2013-06-07 08:40:00,73.9,70.5,29.03,NE,45,0.0,0.0,89,0.00,,OVC240,0.00,VWS V14.01,2013-06-07 13:40:00,
2013-06-07 08:41:00,73.9,70.5,29.03,NE,45,0.0,0.0,89,0.00,,OVC240,0.00,VWS V14.01,2013-06-07 13:41:00,
2013-06-07 08:50:00,74.3,70.8,29.03,SE,135,2.0,2.0,89,0.00,,OVC240,0.00,VWS V14.01,2013-06-07 13:50:00,
2013-06-07 09:00:00,75.7,71.9,29.03,SE,135,2.5,2.5,88,0.00,,OVC240,0.00,VWS V14.01,2013-06-07 14:00:00,
2013-06-07 09:10:00,79.0,74.1,29.03,ESE,112,1.6,1.6,85,0.00,,OVC240,0.00,VWS V14.01,2013-06-07 14:10:00,
2013-06-07 09:20:00,80.6,74.2,29.03,SE,135,2.2,2.5,81,0.00,,OVC240,0.00,VWS V14.01,2013-06-07 14:20:00,
2013-06-07 09:40:00,80.4,72.6,29.06,SE,135,2.7,2.7,77,0.00,,OVC240,0.00,VWS V14.01,2013-06-07 14:40:00,
2013-06-07 09:41:00,80.4,72.6,29.06,SE,135,2.7,2.7,77,0.00,,OVC240,0.00,VWS V14.01,2013-06-07 14:41:00,
2013-06-07 09:50:00,82.8,74.4,29.06,SW,225,1.1,2.0,76,0.00,,OVC240,0.00,VWS V14.01,2013-06-07 14:50:00,
2013-06-07 10:00:00,82.6,73.1,29.06,East,90,2.5,2.5,73,0.00,,OVC240,0.00,VWS V14.01,2013-06-07 15:00:00,
2013-06-07 10:01:00,82.6,73.1,29.06,East,90,2.5,2.5,73,0.00,,OVC240,0.00,VWS V14.01,2013-06-07 15:01:00,
2013-06-07 10:10:00,82.6,71.4,29.06,SE,135,0.9,0.9,69,0.00,,OVC240,0.00,VWS V14.01,2013-06-07 15:10:00,
2013-06-07 10:20:00,84.4,73.1,29.06,SE,135,3.8,4.0,69,0.00,,OVC240,0.00,VWS V14.01,2013-06-07 15:20:00,
2013-06-07 10:30:00,82.6,70.1,29.06,SE,135,1.3,1.3,66,0.00,,OVC240,0.00,VWS V14.01,2013-06-07 15:30:00,
2013-06-07 10:40:00,86.2,72.6,29.06,SE,135,2.5,2.9,64,0.00,,OVC240,0.00,VWS V14.01,2013-06-07 15:40:00,
2013-06-07 10:50:00,84.9,71.8,29.06,NW,315,0.0,0.0,65,0.00,,OVC240,0.00,VWS V14.01,2013-06-07 15:50:00,
2013-06-07 11:00:00,86.4,72.3,29.03,SSE,158,1.1,1.3,63,0.00,,OVC240,0.00,VWS V14.01,2013-06-07 16:00:00,
2013-06-07 11:10:00,86.4,71.3,29.03,ESE,112,3.6,3.8,61,0.00,,OVC240,0.00,VWS V14.01,2013-06-07 16:10:00,
2013-06-07 11:20:00,83.8,70.8,29.03,West,270,1.1,1.6,65,0.00,,OVC240,0.00,VWS V14.01,2013-06-07 16:20:00,
2013-06-07 11:30:00,82.6,69.2,29.03,SW,225,2.9,2.9,64,0.00,,OVC240,0.00,VWS V14.01,2013-06-07 16:30:00,
2013-06-07 11:40:00,85.1,72.5,29.03,SW,225,2.9,2.9,66,0.00,,OVC240,0.00,VWS V14.01,2013-06-07 16:40:00,
2013-06-07 12:00:00,87.6,72.0,29.03,NNE,22,1.3,2.2,60,0.00,,OVC240,0.00,VWS V14.01,2013-06-07 17:00:00,
2013-06-07 12:10:00,86.9,71.3,29.03,East,90,0.0,0.0,60,0.00,,OVC240,0.00,VWS V14.01,2013-06-07 17:10:00,
2013-06-07 12:11:00,86.9,71.3,29.03,East,90,0.0,0.0,60,0.00,,OVC240,0.00,VWS V14.01,2013-06-07 17:11:00,
2013-06-07 12:20:00,87.3,70.7,29.03,SE,135,2.5,2.7,58,0.00,,OVC240,0.00,VWS V14.01,2013-06-07 17:20:00,
2013-06-07 12:30:00,86.5,69.5,29.03,South,180,2.9,2.9,57,0.00,,OVC240,0.00,VWS V14.01,2013-06-07 17:30:00,
2013-06-07 12:40:00,87.1,71.5,29.03,East,90,2.2,2.2,60,0.00,,OVC240,0.00,VWS V14.01,2013-06-07 17:40:00,
2013-06-07 12:41:00,87.1,71.5,29.03,East,90,2.2,2.2,60,0.00,,OVC240,0.00,VWS V14.01,2013-06-07 17:41:00,
2013-06-07 12:50:00,84.7,68.8,29.03,NE,45,0.9,1.1,59,0.00,,OVC240,0.00,VWS V14.01,2013-06-07 17:50:00,
2013-06-07 13:00:00,86.4,70.8,29.03,SE,135,0.9,0.9,60,0.00,,OVC240,0.00,VWS V14.01,2013-06-07 18:00:00,
2013-06-07 13:10:00,86.0,72.4,29.03,West,270,1.6,1.6,64,0.00,,OVC240,0.00,VWS V14.01,2013-06-07 18:10:00,
2013-06-07 13:20:00,84.6,70.1,29.03,SSW,202,0.0,0.0,62,0.00,,OVC240,0.00,VWS V14.01,2013-06-07 18:20:00,
2013-06-07 13:21:00,84.6,70.1,29.03,SSW,202,0.0,0.0,62,0.00,,OVC240,0.00,VWS V14.01,2013-06-07 18:21:00,
2013-06-07 13:40:00,81.3,70.6,29.03,West,270,2.7,2.9,70,0.00,,OVC240,0.00,VWS V14.01,2013-06-07 18:40:00,
2013-06-07 13:50:00,78.6,68.0,29.03,South,180,3.8,3.8,70,0.00,,OVC240,0.00,VWS V14.01,2013-06-07 18:50:00,
2013-06-07 14:00:00,76.6,68.9,29.03,West,270,2.5,2.5,77,0.00,,OVC240,0.00,VWS V14.01,2013-06-07 19:00:00,
2013-06-07 14:10:00,75.7,69.1,29.03,West,270,3.6,3.6,80,0.00,,OVC240,0.00,VWS V14.01,2013-06-07 19:10:00,
2013-06-07 14:20:00,75.9,70.4,29.03,West,270,1.6,1.6,83,0.00,,OVC240,0.00,VWS V14.01,2013-06-07 19:20:00,
2013-06-07 14:30:00,75.9,70.7,29.03,West,270,1.6,1.6,84,0.00,,OVC240,0.00,VWS V14.01,2013-06-07 19:30:00,
2013-06-07 14:40:00,75.7,70.6,29.03,SW,225,0.0,2.0,84,0.00,,OVC240,0.00,VWS V14.01,2013-06-07 19:40:00,
2013-06-07 14:50:00,75.6,70.7,29.03,SW,225,1.3,1.3,85,0.00,,OVC240,0.00,VWS V14.01,2013-06-07 19:50:00,
2013-06-07 15:00:00,74.8,70.4,29.03,West,270,1.1,1.3,86,0.00,,OVC240,0.00,VWS V14.01,2013-06-07 20:00:00,
2013-06-07 15:10:00,74.5,70.4,29.03,West,270,0.0,0.0,87,0.00,,OVC240,0.00,VWS V14.01,2013-06-07 20:10:00,
2013-06-07 15:20:00,74.5,70.7,29.03,West,270,0.0,0.0,88,0.00,,OVC240,0.00,VWS V14.01,2013-06-07 20:20:00,
2013-06-07 15:30:00,74.5,70.7,29.03,West,270,2.0,2.0,88,0.00,,OVC240,0.00,VWS V14.01,2013-06-07 20:30:00,
2013-06-07 15:40:00,73.8,70.0,29.06,WNW,292,2.5,2.5,88,0.00,,OVC240,0.00,VWS V14.01,2013-06-07 20:40:00,
2013-06-07 15:41:00,73.8,70.0,29.06,WNW,292,2.5,2.5,88,0.00,,OVC240,0.00,VWS V14.01,2013-06-07 20:41:00,
2013-06-07 15:50:00,73.0,69.6,29.06,WNW,292,0.0,0.0,89,0.00,,OVC240,0.00,VWS V14.01,2013-06-07 20:50:00,
2013-06-07 16:00:00,72.7,69.6,29.00,WNW,292,0.9,1.3,90,0.00,,OVC240,0.00,VWS V14.01,2013-06-07 21:00:00,
2013-06-07 16:01:00,72.7,69.6,29.00,WNW,292,0.9,1.3,90,0.00,,OVC240,0.00,VWS V14.01,2013-06-07 21:01:00,
2013-06-07 16:10:00,72.5,69.7,29.03,WNW,292,0.0,0.0,91,0.00,,OVC240,0.00,VWS V14.01,2013-06-07 21:10:00,
2013-06-07 16:11:00,72.5,69.7,29.03,WNW,292,0.0,0.0,91,0.00,,OVC240,0.00,VWS V14.01,2013-06-07 21:11:00,
2013-06-07 16:30:00,72.5,70.1,29.03,West,270,0.0,0.0,92,0.00,,OVC240,0.00,VWS V14.01,2013-06-07 21:30:00,
2013-06-07 16:40:00,72.9,70.4,29.03,West,270,0.0,0.0,92,0.00,,OVC240,0.00,VWS V14.01,2013-06-07 21:40:00,
2013-06-07 16:50:00,72.9,70.4,29.03,West,270,0.0,0.0,92,0.00,,OVC240,0.00,VWS V14.01,2013-06-07 21:50:00,
2013-06-07 17:00:00,72.9,70.4,29.03,West,270,0.0,0.9,92,0.00,,OVC240,0.00,VWS V14.01,2013-06-07 22:00:00,
2013-06-07 17:10:00,72.7,70.2,29.03,South,180,0.0,0.0,92,0.00,,OVC240,0.00,VWS V14.01,2013-06-07 22:10:00,
2013-06-07 17:20:00,72.7,70.2,29.03,SE,135,0.0,0.0,92,0.00,,OVC240,0.00,VWS V14.01,2013-06-07 22:20:00,
2013-06-07 17:30:00,72.7,70.5,29.03,SSE,158,0.0,0.0,93,0.00,,OVC240,0.00,VWS V14.01,2013-06-07 22:30:00,
2013-06-07 17:40:00,72.9,70.7,29.06,SE,135,0.0,0.0,93,0.00,,OVC240,0.00,VWS V14.01,2013-06-07 22:40:00,
2013-06-07 17:50:00,73.0,70.9,29.06,SE,135,1.1,1.1,93,0.00,,OVC240,0.00,VWS V14.01,2013-06-07 22:50:00,
2013-06-07 17:51:00,73.0,70.9,29.06,SE,135,1.1,1.1,93,0.00,,OVC240,0.00,VWS V14.01,2013-06-07 22:51:00,
2013-06-07 18:00:00,72.9,70.7,29.06,SE,135,0.0,0.0,93,0.00,,OVC240,0.00,VWS V14.01,2013-06-07 23:00:00,
2013-06-07 18:10:00,72.9,70.7,29.06,SE,135,0.9,0.9,93,0.00,,OVC240,0.00,VWS V14.01,2013-06-07 23:10:00,
2013-06-07 18:20:00,72.9,70.7,29.06,SE,135,0.9,0.9,93,0.00,,OVC240,0.00,VWS V14.01,2013-06-07 23:20:00,
2013-06-07 18:30:00,72.9,70.7,29.06,SE,135,1.6,1.6,93,0.00,,OVC240,0.00,VWS V14.01,2013-06-07 23:30:00,
2013-06-07 18:40:00,73.0,71.2,29.06,SE,135,0.0,0.0,94,0.00,,OVC240,0.00,VWS V14.01,2013-06-07 23:40:00,
2013-06-07 18:50:00,73.2,71.1,29.06,SE,135,0.0,0.0,93,0.00,,OVC240,0.00,VWS V14.01,2013-06-07 23:50:00,
2013-06-07 19:00:00,73.0,70.9,29.09,SE,135,0.0,0.0,93,0.00,,OVC240,0.00,VWS V14.01,2013-06-08 00:00:00,
2013-06-07 19:10:00,72.5,70.4,29.09,West,270,0.0,0.0,93,0.00,,OVC240,0.00,VWS V14.01,2013-06-08 00:10:00,
2013-06-07 19:11:00,72.5,70.4,29.09,West,270,0.0,0.0,93,0.00,,OVC240,0.00,VWS V14.01,2013-06-08 00:11:00,
2013-06-07 19:20:00,71.8,69.7,29.09,West,270,1.3,1.3,93,0.00,,OVC240,0.00,VWS V14.01,2013-06-08 00:20:00,
2013-06-07 19:30:00,71.4,69.6,29.09,West,270,0.0,0.0,94,0.00,,OVC240,0.00,VWS V14.01,2013-06-08 00:30:00,
2013-06-07 19:40:00,70.7,68.9,29.09,West,270,0.0,0.0,94,0.00,,OVC240,0.00,VWS V14.01,2013-06-08 00:40:00,
2013-06-07 19:50:00,70.2,68.4,29.09,West,270,0.0,0.0,94,0.00,,OVC240,0.00,VWS V14.01,2013-06-08 00:50:00,
2013-06-07 20:00:00,69.3,67.5,29.09,West,270,0.0,0.0,94,0.00,,OVC240,0.00,VWS V14.01,2013-06-08 01:00:00,
2013-06-07 20:10:00,68.5,67.1,29.06,West,270,0.0,0.0,95,0.00,,OVC240,0.00,VWS V14.01,2013-06-08 01:10:00,
2013-06-07 20:11:00,68.5,67.1,29.06,West,270,0.0,0.0,95,0.00,,OVC240,0.00,VWS V14.01,2013-06-08 01:11:00,
2013-06-07 20:20:00,67.6,66.2,29.06,West,270,0.0,0.0,95,0.00,,OVC240,0.00,VWS V14.01,2013-06-08 01:20:00,
2013-06-07 20:30:00,66.9,65.4,29.09,West,270,0.0,0.0,95,0.00,,OVC240,0.00,VWS V14.01,2013-06-08 01:30:00,
2013-06-07 20:40:00,66.6,65.4,29.06,West,270,0.0,0.0,96,0.00,,OVC240,0.00,VWS V14.01,2013-06-08 01:40:00,
2013-06-07 20:41:00,66.6,65.4,29.06,West,270,0.0,0.0,96,0.00,,OVC240,0.00,VWS V14.01,2013-06-08 01:41:00,
2013-06-07 20:50:00,66.2,65.0,29.06,West,270,0.0,0.0,96,0.00,,OVC240,0.00,VWS V14.01,2013-06-08 01:50:00,
2013-06-07 21:00:00,65.8,64.7,29.09,West,270,0.0,0.0,96,0.00,,OVC240,0.00,VWS V14.01,2013-06-08 02:00:00,
2013-06-07 21:10:00,65.8,65.0,29.09,West,270,0.0,0.0,97,0.00,,OVC240,0.00,VWS V14.01,2013-06-08 02:10:00,
2013-06-07 21:20:00,66.0,65.2,29.09,West,270,0.0,0.0,97,0.00,,OVC240,0.00,VWS V14.01,2013-06-08 02:20:00,
2013-06-07 21:30:00,66.4,65.5,29.09,NW,315,0.0,0.0,97,0.00,,OVC240,0.00,VWS V14.01,2013-06-08 02:30:00,
2013-06-07 21:40:00,66.7,65.9,29.12,NW,315,0.0,0.0,97,0.00,,OVC240,0.00,VWS V14.01,2013-06-08 02:40:00,
2013-06-07 21:50:00,66.9,66.0,29.11,NW,315,0.0,0.9,97,0.00,,OVC240,0.00,VWS V14.01,2013-06-08 02:50:00,
2013-06-07 21:51:00,66.9,66.0,29.12,NW,315,0.0,0.9,97,0.00,,OVC240,0.00,VWS V14.01,2013-06-08 02:51:00,
2013-06-07 22:00:00,67.1,66.2,29.12,NW,315,0.0,0.0,97,0.00,,OVC240,0.00,VWS V14.01,2013-06-08 03:00:00,
2013-06-07 22:10:00,67.1,66.2,29.12,NW,315,0.0,0.0,97,0.00,,OVC240,0.00,VWS V14.01,2013-06-08 03:10:00,
2013-06-07 22:20:00,66.7,65.9,29.11,NW,315,0.0,0.0,97,0.00,,OVC240,0.00,VWS V14.01,2013-06-08 03:20:00,
2013-06-07 22:30:00,66.7,65.9,29.11,NW,315,0.0,0.0,97,0.00,,OVC240,0.00,VWS V14.01,2013-06-08 03:30:00,
2013-06-07 22:31:00,66.7,65.9,29.12,NW,315,0.0,0.0,97,0.00,,OVC240,0.00,VWS V14.01,2013-06-08 03:31:00,
2013-06-07 22:40:00,66.9,66.0,29.11,NW,315,0.0,0.0,97,0.00,,OVC240,0.00,VWS V14.01,2013-06-08 03:40:00,
2013-06-07 23:00:00,67.1,66.2,29.12,NW,315,0.0,0.0,97,0.00,,OVC240,0.00,VWS V14.01,2013-06-08 04:00:00,
2013-06-07 23:10:00,67.1,66.2,29.14,NW,315,0.0,0.0,97,0.00,,OVC240,0.00,VWS V14.01,2013-06-08 04:10:00,
2013-06-07 23:20:00,67.1,66.2,29.14,NW,315,0.0,0.0,97,0.00,,OVC240,0.00,VWS V14.01,2013-06-08 04:20:00,
2013-06-07 23:30:00,67.1,66.2,29.14,NW,315,0.0,0.0,97,0.00,,OVC240,0.00,VWS V14.01,2013-06-08 04:30:00,
2013-06-07 23:40:00,66.9,66.0,29.12,NW,315,0.0,0.0,97,0.00,,OVC240,0.00,VWS V14.01,2013-06-08 04:40:00,
2013-06-07 23:49:00,66.4,65.5,29.11,NW,315,0.0,0.0,97,0.00,,OVC240,0.00,VWS V14.01,2013-06-08 04:49:00,
2013-06-07 23:50:00,66.4,65.5,29.11,NW,315,1.3,1.3,97,0.00,,OVC240,0.00,VWS V14.01,2013-06-08 04:50:00,
2013-06-07 23:56:00,66.4,65.5,29.12,NW,315,1.3,1.3,97,0.00,,OVC240,0.00,VWS V14.01,2013-06-08 04:56:00,